createdAt,value
2022-12-19T00:01:18.802Z,-0.20
2022-12-19T00:03:48.737Z,-0.20
2022-12-19T00:06:19.102Z,-0.20
2022-12-19T00:08:49.608Z,-0.20
2022-12-19T00:11:20.324Z,-0.20
2022-12-19T00:13:50.775Z,-0.20
2022-12-19T00:16:21.420Z,-0.20
2022-12-19T00:18:51.256Z,-0.20
2022-12-19T00:21:26.213Z,-0.20
2022-12-19T00:23:55.267Z,-0.20
2022-12-19T00:26:27.437Z,-0.20
2022-12-19T00:28:59.701Z,-0.20
2022-12-19T00:31:30.353Z,-0.20
2022-12-19T00:33:59.501Z,-0.20
2022-12-19T00:36:29.593Z,-0.20
2022-12-19T00:38:59.984Z,-0.20
2022-12-19T00:41:30.213Z,-0.10
2022-12-19T00:44:01.622Z,-0.10
2022-12-19T00:46:32.835Z,-0.10
2022-12-19T00:49:01.722Z,-0.10
2022-12-19T00:51:34.237Z,-0.10
2022-12-19T00:54:04.187Z,-0.10
2022-12-19T00:56:37.232Z,-0.10
2022-12-19T00:59:11.123Z,-0.10
2022-12-19T01:01:42.263Z,-0.10
2022-12-19T01:04:35.640Z,-0.10
2022-12-19T01:07:08.248Z,-0.10
2022-12-19T01:09:39.135Z,-0.10
2022-12-19T01:12:25.829Z,-0.10
2022-12-19T01:15:04.036Z,-0.10
2022-12-19T01:17:44.237Z,-0.10
2022-12-19T01:20:14.929Z,-0.10
2022-12-19T01:22:43.537Z,-0.10
2022-12-19T01:25:15.226Z,-0.10
2022-12-19T01:27:43.736Z,-0.10
2022-12-19T01:30:16.119Z,-0.10
2022-12-19T01:32:45.396Z,-0.10
2022-12-19T01:35:21.508Z,-0.10
2022-12-19T01:37:51.607Z,-0.10
2022-12-19T01:40:20.636Z,-0.10
2022-12-19T01:42:50.203Z,-0.10
2022-12-19T01:45:34.374Z,-0.10
2022-12-19T01:48:16.756Z,-0.10
2022-12-19T01:51:00.814Z,-0.10
2022-12-19T01:53:36.651Z,-0.10
2022-12-19T01:56:19.389Z,-0.10
2022-12-19T01:58:50.690Z,-0.10
2022-12-19T02:01:27.073Z,-0.10
2022-12-19T02:03:57.684Z,-0.10
2022-12-19T02:06:27.838Z,-0.10
2022-12-19T02:08:57.664Z,0.00
2022-12-19T02:11:26.287Z,0.00
2022-12-19T02:13:55.074Z,0.00
2022-12-19T02:16:35.871Z,0.00
2022-12-19T02:19:19.721Z,0.00
2022-12-19T02:21:57.070Z,0.00
2022-12-19T02:25:02.436Z,0.00
2022-12-19T02:28:05.161Z,0.00
2022-12-19T02:30:54.885Z,0.00
2022-12-19T02:33:34.949Z,0.00
2022-12-19T02:36:09.011Z,0.00
2022-12-19T02:38:46.328Z,0.00
2022-12-19T02:41:22.041Z,0.00
2022-12-19T02:43:56.806Z,0.00
2022-12-19T02:46:31.092Z,0.00
2022-12-19T02:49:00.399Z,0.00
2022-12-19T02:51:28.766Z,0.00
2022-12-19T02:53:58.284Z,0.00
2022-12-19T02:56:43.527Z,0.00
2022-12-19T02:59:50.463Z,0.00
2022-12-19T03:02:29.711Z,0.00
2022-12-19T03:05:06.586Z,0.00
2022-12-19T03:07:41.248Z,0.00
2022-12-19T03:10:20.743Z,0.00
2022-12-19T03:12:54.780Z,0.00
2022-12-19T03:15:25.643Z,0.00
2022-12-19T03:18:00.613Z,0.00
2022-12-19T03:20:47.419Z,0.00
2022-12-19T03:23:16.651Z,0.00
2022-12-19T03:25:51.070Z,0.00
2022-12-19T03:28:27.959Z,0.00
2022-12-19T03:30:59.706Z,0.00
2022-12-19T03:33:32.574Z,0.00
2022-12-19T03:36:06.007Z,0.00
2022-12-19T03:38:36.755Z,0.00
2022-12-19T03:41:07.587Z,0.00
2022-12-19T03:43:36.202Z,0.10
2022-12-19T03:46:14.137Z,0.10
2022-12-19T03:48:49.009Z,0.10
2022-12-19T03:51:25.889Z,0.10
2022-12-19T03:54:01.833Z,0.10
2022-12-19T03:56:39.981Z,0.10
2022-12-19T03:59:12.387Z,0.10
2022-12-19T04:01:42.613Z,0.10
2022-12-19T04:04:13.617Z,0.10
2022-12-19T04:06:44.984Z,0.10
2022-12-19T04:09:17.908Z,0.10
2022-12-19T04:11:53.678Z,0.10
2022-12-19T04:14:28.080Z,0.10
2022-12-19T04:17:02.982Z,0.10
2022-12-19T04:19:42.458Z,0.10
2022-12-19T04:22:18.671Z,0.10
2022-12-19T04:24:49.113Z,0.10
2022-12-19T04:27:18.299Z,0.10
2022-12-19T04:29:48.081Z,0.10
2022-12-19T04:32:16.848Z,0.10
2022-12-19T04:34:46.621Z,0.10
2022-12-19T04:37:15.630Z,0.10
2022-12-19T04:39:44.153Z,0.10
2022-12-19T04:42:12.626Z,0.10
2022-12-19T04:44:41.060Z,0.10
2022-12-19T04:47:09.768Z,0.10
2022-12-19T04:49:38.320Z,0.10
2022-12-19T04:52:08.471Z,0.10
2022-12-19T04:54:36.923Z,0.10
2022-12-19T04:57:05.424Z,0.20
2022-12-19T04:59:33.829Z,0.20
2022-12-19T05:02:02.390Z,0.20
2022-12-19T05:04:31.092Z,0.20
2022-12-19T05:07:02.138Z,0.20
2022-12-19T05:09:31.922Z,0.20
2022-12-19T05:12:00.307Z,0.20
2022-12-19T05:14:29.004Z,0.20
2022-12-19T05:17:01.197Z,0.20
2022-12-19T05:19:30.232Z,0.20
2022-12-19T05:21:58.657Z,0.20
2022-12-19T05:24:27.077Z,0.20
2022-12-19T05:26:56.825Z,0.20
2022-12-19T05:29:28.228Z,0.20
2022-12-19T05:31:56.656Z,0.20
2022-12-19T05:34:25.895Z,0.20
2022-12-19T05:36:54.732Z,0.20
2022-12-19T05:39:23.234Z,0.30
2022-12-19T05:41:53.128Z,0.30
2022-12-19T05:44:23.332Z,0.30
2022-12-19T05:46:51.805Z,0.30
2022-12-19T05:49:20.221Z,0.30
2022-12-19T05:51:48.769Z,0.30
2022-12-19T05:54:17.158Z,0.30
2022-12-19T05:56:46.081Z,0.30
2022-12-19T05:59:14.508Z,0.30
2022-12-19T06:01:44.450Z,0.30
2022-12-19T06:04:13.047Z,0.30
2022-12-19T06:06:41.578Z,0.30
2022-12-19T06:09:11.482Z,0.30
2022-12-19T06:11:39.951Z,0.30
2022-12-19T06:14:08.435Z,0.30
2022-12-19T06:16:36.840Z,0.30
2022-12-19T06:19:06.782Z,0.40
2022-12-19T06:21:35.447Z,0.40
2022-12-19T06:24:03.859Z,0.30
2022-12-19T06:26:32.359Z,0.40
2022-12-19T06:29:03.778Z,0.40
2022-12-19T06:31:32.369Z,0.40
2022-12-19T06:34:01.057Z,0.40
2022-12-19T06:36:32.217Z,0.40
2022-12-19T06:39:00.601Z,0.40
2022-12-19T06:41:47.297Z,0.40
2022-12-19T06:44:17.729Z,0.40
2022-12-19T06:46:46.440Z,0.40
2022-12-19T06:49:14.808Z,0.40
2022-12-19T06:51:44.632Z,0.50
2022-12-19T06:54:13.559Z,0.40
2022-12-19T06:56:43.633Z,0.50
2022-12-19T06:59:14.737Z,0.50
2022-12-19T07:01:57.084Z,0.50
2022-12-19T07:04:31.593Z,0.50
2022-12-19T07:07:01.768Z,0.50
2022-12-19T07:09:32.977Z,0.50
2022-12-19T07:12:04.352Z,0.50
2022-12-19T07:14:32.944Z,0.50
2022-12-19T07:17:03.704Z,0.50
2022-12-19T07:19:33.946Z,0.50
2022-12-19T07:22:05.069Z,0.50
2022-12-19T07:24:33.963Z,0.50
2022-12-19T07:27:02.379Z,0.50
2022-12-19T07:29:30.786Z,0.50
2022-12-19T07:31:59.281Z,0.60
2022-12-19T07:34:27.769Z,0.60
2022-12-19T07:36:56.314Z,0.60
2022-12-19T07:39:27.126Z,0.60
2022-12-19T07:41:55.599Z,0.50
2022-12-19T07:44:34.311Z,0.60
2022-12-19T07:47:02.696Z,0.60
2022-12-19T07:49:31.236Z,0.60
2022-12-19T07:51:59.604Z,0.60
2022-12-19T07:54:29.373Z,0.60
2022-12-19T07:56:57.788Z,0.60
2022-12-19T07:59:31.292Z,0.60
2022-12-19T08:02:02.220Z,0.60
2022-12-19T08:04:30.580Z,0.60
2022-12-19T08:06:59.038Z,0.60
2022-12-19T08:09:28.797Z,0.60
2022-12-19T08:11:57.182Z,0.60
2022-12-19T08:14:26.186Z,0.60
2022-12-19T08:19:43.012Z,0.70
2022-12-19T08:22:11.547Z,0.70
2022-12-19T08:24:41.334Z,0.60
2022-12-19T08:27:09.803Z,0.70
2022-12-19T08:29:38.220Z,0.70
2022-12-19T08:32:07.000Z,0.60
2022-12-19T08:34:35.384Z,0.70
2022-12-19T08:37:05.335Z,0.70
2022-12-19T08:39:34.084Z,0.70
2022-12-19T08:42:04.373Z,0.70
2022-12-19T08:44:33.012Z,0.70
2022-12-19T08:47:02.354Z,0.70
2022-12-19T08:49:30.878Z,0.70
2022-12-19T08:51:59.294Z,0.70
2022-12-19T08:54:28.266Z,0.70
2022-12-19T08:56:56.652Z,0.70
2022-12-19T08:59:30.793Z,0.70
2022-12-19T09:02:00.323Z,0.70
2022-12-19T09:05:50.889Z,0.70
2022-12-19T09:07:18.044Z,0.70
2022-12-19T09:09:46.481Z,0.70
2022-12-19T09:12:16.132Z,0.70
2022-12-19T09:14:46.300Z,0.80
2022-12-19T09:17:14.923Z,0.70
2022-12-19T09:19:48.148Z,0.80
2022-12-19T09:22:17.636Z,0.80
2022-12-19T09:24:46.676Z,0.80
2022-12-19T09:27:15.004Z,0.80
2022-12-19T09:29:44.177Z,0.80
2022-12-19T09:32:14.133Z,0.80
2022-12-19T09:34:42.547Z,0.80
2022-12-19T09:37:16.830Z,0.80
2022-12-19T09:39:47.339Z,0.80
2022-12-19T09:42:40.589Z,0.80
2022-12-19T09:45:33.521Z,0.80
2022-12-19T09:48:04.913Z,0.90
2022-12-19T09:50:42.989Z,0.90
2022-12-19T09:53:17.992Z,0.90
2022-12-19T09:55:47.812Z,0.90
2022-12-19T09:58:26.053Z,0.90
2022-12-19T10:01:00.201Z,0.90
2022-12-19T10:03:40.035Z,1.00
2022-12-19T10:07:16.301Z,1.00
2022-12-19T10:12:04.069Z,1.00
2022-12-19T10:12:40.855Z,0.90
2022-12-19T10:15:09.335Z,1.00
2022-12-19T10:17:58.074Z,1.00
2022-12-19T10:20:31.563Z,1.00
2022-12-19T10:23:13.727Z,1.00
2022-12-19T10:25:57.871Z,1.00
2022-12-19T10:28:39.048Z,1.00
2022-12-19T10:31:21.991Z,1.00
2022-12-19T10:33:58.369Z,1.00
2022-12-19T10:37:04.349Z,1.00
2022-12-19T10:39:28.366Z,1.00
2022-12-19T10:42:03.584Z,1.00
2022-12-19T10:44:35.719Z,1.00
2022-12-19T10:47:04.739Z,1.00
2022-12-19T10:49:33.171Z,1.00
2022-12-19T10:52:07.999Z,1.00
2022-12-19T10:54:41.862Z,1.00
2022-12-19T10:57:24.148Z,1.00
2022-12-19T10:59:57.091Z,1.10
2022-12-19T11:02:35.024Z,1.10
2022-12-19T11:05:05.722Z,1.10
2022-12-19T11:07:35.617Z,1.10
2022-12-19T11:10:43.483Z,1.10
2022-12-19T11:18:58.860Z,1.10
2022-12-19T11:22:05.369Z,1.10
2022-12-19T11:29:26.118Z,1.10
2022-12-19T11:29:32.983Z,1.10
2022-12-19T11:29:33.186Z,1.10
2022-12-19T11:30:45.318Z,1.20
2022-12-19T11:33:17.754Z,1.10
2022-12-19T11:35:49.607Z,1.20
2022-12-19T11:38:22.755Z,1.20
2022-12-19T11:40:58.462Z,1.20
2022-12-19T11:43:48.275Z,1.20
2022-12-19T11:46:34.365Z,1.20
2022-12-19T11:49:10.068Z,1.20
2022-12-19T11:51:46.232Z,1.20
2022-12-19T11:54:20.811Z,1.20
2022-12-19T11:56:50.614Z,1.20
2022-12-19T11:59:21.454Z,1.20
2022-12-19T12:02:09.646Z,1.20
2022-12-19T12:05:11.672Z,1.20
2022-12-19T12:08:58.564Z,1.20
2022-12-19T12:15:12.718Z,1.20
2022-12-19T12:21:45.413Z,1.30
2022-12-19T12:27:57.930Z,1.30
2022-12-19T12:31:08.057Z,1.30
2022-12-19T12:31:23.831Z,1.30
2022-12-19T12:32:02.057Z,1.30
2022-12-19T12:32:06.760Z,1.30
2022-12-19T12:35:52.361Z,1.30
2022-12-19T12:36:56.100Z,1.30
2022-12-19T12:41:09.941Z,1.30
2022-12-19T12:44:08.347Z,1.40
2022-12-19T12:46:41.430Z,1.40
2022-12-19T12:49:28.536Z,1.40
2022-12-19T12:51:57.634Z,1.40
2022-12-19T12:54:32.355Z,1.40
2022-12-19T12:57:00.799Z,1.40
2022-12-19T12:59:33.462Z,1.40
2022-12-19T13:02:09.023Z,1.40
2022-12-19T13:04:44.573Z,1.40
2022-12-19T13:07:31.447Z,1.40
2022-12-19T13:10:18.835Z,1.40
2022-12-19T13:13:02.971Z,1.40
2022-12-19T13:15:50.762Z,1.50
2022-12-19T13:18:38.866Z,1.50
2022-12-19T13:21:09.760Z,1.50
2022-12-19T13:24:16.191Z,1.50
2022-12-19T13:26:49.487Z,1.50
2022-12-19T13:29:53.946Z,1.50
2022-12-19T13:32:24.940Z,1.50
2022-12-19T13:35:06.980Z,1.50
2022-12-19T13:39:58.315Z,1.50
2022-12-19T13:40:51.916Z,1.50
2022-12-19T13:43:42.419Z,1.50
2022-12-19T13:46:25.098Z,1.50
2022-12-19T13:49:00.844Z,1.60
2022-12-19T13:51:29.183Z,1.60
2022-12-19T13:54:01.204Z,1.60
2022-12-19T13:56:32.181Z,1.60
2022-12-19T13:59:03.662Z,1.60
2022-12-19T14:01:34.875Z,1.60
2022-12-19T14:04:08.879Z,1.60
2022-12-19T14:06:42.572Z,1.60
2022-12-19T14:11:26.874Z,1.60
2022-12-19T14:13:59.189Z,1.60
2022-12-19T14:15:29.651Z,1.60
2022-12-19T14:18:29.950Z,1.80
2022-12-19T14:22:10.194Z,1.80
2022-12-19T14:23:43.305Z,1.80
2022-12-19T14:28:16.785Z,1.80
2022-12-19T14:29:13.681Z,1.70
2022-12-19T14:31:58.346Z,1.70
2022-12-19T14:36:04.795Z,1.70
2022-12-19T14:39:18.486Z,1.70
2022-12-19T14:40:25.726Z,1.70
2022-12-19T14:43:57.346Z,1.70
2022-12-19T14:52:26.127Z,1.70
2022-12-19T14:54:10.728Z,1.70
2022-12-19T14:54:55.047Z,1.70
2022-12-19T14:56:17.643Z,1.70
2022-12-19T14:58:53.651Z,1.70
2022-12-19T15:01:25.847Z,1.70
2022-12-19T15:04:53.009Z,1.70
2022-12-19T15:07:06.945Z,1.70
2022-12-19T15:11:05.550Z,1.70
2022-12-19T15:14:48.424Z,1.80
2022-12-19T15:15:59.139Z,1.70
2022-12-19T15:18:29.874Z,1.80
2022-12-19T15:21:00.361Z,1.80
2022-12-19T15:23:29.776Z,1.80
2022-12-19T15:26:05.288Z,1.80
2022-12-19T15:28:41.230Z,1.80
2022-12-19T15:31:18.360Z,1.80
2022-12-19T15:34:23.392Z,1.80
2022-12-19T15:36:36.033Z,1.80
2022-12-19T15:39:04.838Z,1.80
2022-12-19T15:41:37.464Z,1.80
2022-12-19T15:44:10.789Z,1.80
2022-12-19T15:46:46.347Z,1.80
2022-12-19T15:49:21.362Z,1.80
2022-12-19T15:51:50.552Z,1.80
2022-12-19T15:54:47.849Z,1.80
2022-12-19T15:57:22.634Z,1.80
2022-12-19T15:59:51.875Z,1.80
2022-12-19T16:02:24.297Z,1.90
2022-12-19T16:04:59.815Z,1.90
2022-12-19T16:07:31.968Z,1.90
2022-12-19T16:10:00.335Z,1.90
2022-12-19T16:12:38.440Z,1.90
2022-12-19T16:15:14.579Z,1.90
2022-12-19T16:17:43.145Z,1.90
2022-12-19T16:20:19.366Z,1.90
2022-12-19T16:22:47.883Z,1.90
2022-12-19T16:25:16.788Z,1.90
2022-12-19T16:27:51.689Z,1.90
2022-12-19T16:30:22.399Z,1.90
2022-12-19T16:32:51.708Z,1.90
2022-12-19T16:35:40.189Z,1.90
2022-12-19T16:38:11.547Z,1.90
2022-12-19T16:40:39.982Z,2.00
2022-12-19T16:43:16.322Z,2.00
2022-12-19T16:45:45.589Z,2.00
2022-12-19T16:48:19.999Z,2.00
2022-12-19T16:50:48.999Z,2.00
2022-12-19T16:53:17.909Z,2.00
2022-12-19T16:55:47.303Z,2.00
2022-12-19T16:58:21.351Z,2.00
2022-12-19T17:00:51.790Z,2.00
2022-12-19T17:03:29.785Z,2.00
2022-12-19T17:05:58.329Z,2.10
2022-12-19T17:08:26.805Z,2.10
2022-12-19T17:10:55.634Z,2.10
2022-12-19T17:13:25.937Z,2.10
2022-12-19T17:15:57.135Z,2.10
2022-12-19T17:18:29.894Z,2.10
2022-12-19T17:20:58.695Z,2.10
2022-12-19T17:23:29.049Z,2.10
2022-12-19T17:25:59.443Z,2.10
2022-12-19T17:28:30.132Z,2.10
2022-12-19T17:31:03.674Z,2.20
2022-12-19T17:33:36.144Z,2.20
2022-12-19T17:36:06.107Z,2.20
2022-12-19T17:38:35.242Z,2.20
2022-12-19T17:41:04.700Z,2.20
2022-12-19T17:43:35.576Z,2.20
2022-12-19T17:46:04.439Z,2.20
2022-12-19T17:48:34.465Z,2.20
2022-12-19T17:51:02.903Z,2.20
2022-12-19T17:53:31.315Z,2.20
2022-12-19T17:55:59.989Z,2.20
2022-12-19T17:58:29.811Z,2.20
2022-12-19T18:00:59.656Z,2.20
2022-12-19T18:03:28.267Z,2.20
2022-12-19T18:05:57.368Z,2.30
2022-12-19T18:08:28.594Z,2.30
2022-12-19T18:11:01.373Z,2.30
2022-12-19T18:13:31.308Z,2.30
2022-12-19T18:16:03.191Z,2.30
2022-12-19T18:18:34.745Z,2.30
2022-12-19T18:21:04.385Z,2.30
2022-12-19T18:23:33.161Z,2.30
2022-12-19T18:26:02.793Z,2.30
2022-12-19T18:28:31.770Z,2.30
2022-12-19T18:31:04.043Z,2.30
2022-12-19T18:33:39.253Z,2.40
2022-12-19T18:36:08.898Z,2.30
2022-12-19T18:38:37.848Z,2.30
2022-12-19T18:41:06.301Z,2.40
2022-12-19T18:43:34.833Z,2.40
2022-12-19T18:46:04.855Z,2.40
2022-12-19T18:48:36.366Z,2.40
2022-12-19T18:51:06.452Z,2.40
2022-12-19T18:53:36.175Z,2.40
2022-12-19T18:56:05.921Z,2.40
2022-12-19T18:58:35.191Z,2.40
2022-12-19T19:01:06.842Z,2.40
2022-12-19T19:03:37.399Z,2.40
2022-12-19T19:06:08.918Z,2.40
2022-12-19T19:08:37.427Z,2.40
2022-12-19T19:11:25.029Z,2.50
2022-12-19T19:13:54.248Z,2.40
2022-12-19T19:16:25.987Z,2.50
2022-12-19T19:18:56.033Z,2.50
2022-12-19T19:21:26.338Z,2.50
2022-12-19T19:23:58.907Z,2.50
2022-12-19T19:26:27.541Z,2.50
2022-12-19T19:28:55.997Z,2.50
2022-12-19T19:31:27.932Z,2.50
2022-12-19T19:34:01.068Z,2.50
2022-12-19T19:36:32.232Z,2.50
2022-12-19T19:39:00.738Z,2.50
2022-12-19T19:41:30.117Z,2.50
2022-12-19T19:43:59.788Z,2.50
2022-12-19T19:46:30.028Z,2.50
2022-12-19T19:48:58.710Z,2.60
2022-12-19T19:51:29.277Z,2.60
2022-12-19T19:53:58.053Z,2.60
2022-12-19T19:56:26.485Z,2.60
2022-12-19T19:58:57.640Z,2.60
2022-12-19T20:01:26.186Z,2.60
2022-12-19T20:03:56.164Z,2.60
2022-12-19T20:06:24.868Z,2.60
2022-12-19T20:08:53.318Z,2.60
2022-12-19T20:11:21.867Z,2.60
2022-12-19T20:13:51.210Z,2.60
2022-12-19T20:16:20.947Z,2.60
2022-12-19T20:18:51.430Z,2.70
2022-12-19T20:21:22.402Z,2.60
2022-12-19T20:23:50.884Z,2.60
2022-12-19T20:26:19.620Z,2.70
2022-12-19T20:28:51.648Z,2.60
2022-12-19T20:31:21.091Z,2.70
2022-12-19T20:33:50.458Z,2.70
2022-12-19T20:36:20.693Z,2.70
2022-12-19T20:38:49.924Z,2.70
2022-12-19T20:41:18.765Z,2.70
2022-12-19T20:43:48.139Z,2.70
2022-12-19T20:46:18.638Z,2.70
2022-12-19T20:48:50.277Z,2.70
2022-12-19T20:51:21.951Z,2.70
2022-12-19T20:53:52.703Z,2.70
2022-12-19T20:56:23.095Z,2.70
2022-12-19T20:58:51.626Z,2.70
2022-12-19T21:01:22.816Z,2.70
2022-12-19T21:03:52.088Z,2.70
2022-12-19T21:06:25.412Z,2.70
2022-12-19T21:08:54.298Z,2.80
2022-12-19T21:11:22.761Z,2.70
2022-12-19T21:13:51.743Z,2.80
2022-12-19T21:16:22.280Z,2.80
2022-12-19T21:18:51.479Z,2.80
2022-12-19T21:21:23.478Z,2.80
2022-12-19T21:23:52.442Z,2.80
2022-12-19T21:26:21.754Z,2.80
2022-12-19T21:28:50.201Z,2.80
2022-12-19T21:31:20.511Z,2.80
2022-12-19T21:33:49.359Z,2.80
2022-12-19T21:36:20.448Z,2.80
2022-12-19T21:38:52.657Z,2.80
2022-12-19T21:41:21.397Z,2.80
2022-12-19T21:43:53.378Z,2.80
2022-12-19T21:46:24.998Z,2.80
2022-12-19T21:48:55.485Z,2.90
2022-12-19T21:51:26.590Z,2.90
2022-12-19T21:53:57.624Z,2.90
2022-12-19T21:56:28.806Z,2.90
2022-12-19T21:58:58.989Z,2.90
2022-12-19T22:01:27.852Z,2.90
2022-12-19T22:03:59.983Z,2.90
2022-12-19T22:06:31.890Z,2.90
2022-12-19T22:09:02.350Z,2.90
2022-12-19T22:11:32.997Z,2.90
2022-12-19T22:14:02.348Z,3.00
2022-12-19T22:16:30.884Z,2.90
2022-12-19T22:18:59.437Z,3.00
2022-12-19T22:21:31.191Z,3.00
2022-12-19T22:24:02.733Z,3.00
2022-12-19T22:26:32.558Z,3.00
2022-12-19T22:29:01.077Z,2.90
2022-12-19T22:31:32.143Z,3.00
2022-12-19T22:34:02.867Z,3.00
2022-12-19T22:36:33.092Z,3.00
2022-12-19T22:39:05.018Z,3.00
2022-12-19T22:41:34.599Z,3.00
2022-12-19T22:44:03.338Z,3.00
2022-12-19T22:46:33.965Z,3.00
2022-12-19T22:49:04.808Z,3.00
2022-12-19T22:51:34.853Z,3.00
2022-12-19T22:54:05.873Z,3.00
2022-12-19T22:56:35.277Z,3.10
2022-12-19T22:59:05.392Z,3.00
2022-12-19T23:01:36.870Z,3.10
2022-12-19T23:04:06.704Z,3.10
2022-12-19T23:06:37.624Z,3.10
2022-12-19T23:09:09.278Z,3.10
2022-12-19T23:11:39.776Z,3.10
2022-12-19T23:14:09.623Z,3.10
2022-12-19T23:16:38.141Z,3.10
2022-12-19T23:19:07.169Z,3.10
2022-12-19T23:21:36.006Z,3.10
2022-12-19T23:24:04.673Z,3.10
2022-12-19T23:26:36.650Z,3.20
2022-12-19T23:29:07.113Z,3.20
2022-12-19T23:31:36.263Z,3.20
2022-12-19T23:34:04.831Z,3.20
2022-12-19T23:37:09.007Z,3.20
2022-12-19T23:39:21.862Z,3.20
2022-12-19T23:41:51.569Z,3.20
2022-12-19T23:44:20.277Z,3.20
2022-12-19T23:46:48.818Z,3.20
2022-12-19T23:49:17.260Z,3.20
2022-12-19T23:51:45.662Z,3.20
2022-12-19T23:54:14.136Z,3.20
2022-12-19T23:56:42.610Z,3.20
2022-12-19T23:59:12.479Z,3.20
